sensor_id;sensor_type;location;lat;lon;timestamp;pressure;altitude;pressure_sealevel;temperature;humidity
76122;BME280;64853;53.200;6.080;2022-11-03T00:01:57;101212.59;;;17.92;56.05
76122;BME280;64853;53.200;6.080;2022-11-03T00:04:23;101215.38;;;17.92;55.97
76122;BME280;64853;53.200;6.080;2022-11-03T00:06:51;101225.53;;;17.92;56.01
76122;BME280;64853;53.200;6.080;2022-11-03T00:09:18;101217.53;;;17.90;56.10
76122;BME280;64853;53.200;6.080;2022-11-03T00:11:46;101217.28;;;17.92;56.24
76122;BME280;64853;53.200;6.080;2022-11-03T00:14:15;101210.94;;;17.91;55.90
76122;BME280;64853;53.200;6.080;2022-11-03T00:16:42;101221.69;;;17.93;56.06
76122;BME280;64853;53.200;6.080;2022-11-03T00:19:10;101208.19;;;17.91;56.11
76122;BME280;64853;53.200;6.080;2022-11-03T00:21:38;101200.19;;;17.90;55.86
76122;BME280;64853;53.200;6.080;2022-11-03T00:24:05;101194.69;;;17.90;55.95
76122;BME280;64853;53.200;6.080;2022-11-03T00:26:32;101179.81;;;17.91;55.84
76122;BME280;64853;53.200;6.080;2022-11-03T00:29:01;101175.41;;;17.90;56.21
76122;BME280;64853;53.200;6.080;2022-11-03T00:31:33;101172.66;;;17.90;56.12
76122;BME280;64853;53.200;6.080;2022-11-03T00:34:01;101155.31;;;17.89;55.89
76122;BME280;64853;53.200;6.080;2022-11-03T00:36:30;101157.78;;;17.91;56.00
76122;BME280;64853;53.200;6.080;2022-11-03T00:38:57;101154.47;;;17.89;55.94
76122;BME280;64853;53.200;6.080;2022-11-03T00:41:25;101148.94;;;17.89;56.18
76122;BME280;64853;53.200;6.080;2022-11-03T00:43:52;101141.00;;;17.87;56.00
76122;BME280;64853;53.200;6.080;2022-11-03T00:46:19;101140.16;;;17.87;56.13
76122;BME280;64853;53.200;6.080;2022-11-03T00:48:46;101138.25;;;17.87;56.09
76122;BME280;64853;53.200;6.080;2022-11-03T00:51:15;101135.50;;;17.87;55.89
76122;BME280;64853;53.200;6.080;2022-11-03T00:53:44;101128.31;;;17.86;56.03
76122;BME280;64853;53.200;6.080;2022-11-03T00:56:13;101114.53;;;17.86;55.85
76122;BME280;64853;53.200;6.080;2022-11-03T00:58:40;101114.81;;;17.85;56.09
76122;BME280;64853;53.200;6.080;2022-11-03T01:01:11;101122.81;;;17.86;56.30
76122;BME280;64853;53.200;6.080;2022-11-03T01:03:39;101117.56;;;17.85;56.10
76122;BME280;64853;53.200;6.080;2022-11-03T01:06:07;101110.13;;;17.85;56.14
76122;BME280;64853;53.200;6.080;2022-11-03T01:08:53;101111.25;;;17.84;55.94
76122;BME280;64853;53.200;6.080;2022-11-03T01:11:21;101106.03;;;17.83;56.00
76122;BME280;64853;53.200;6.080;2022-11-03T01:14:06;101103.25;;;17.83;56.02
76122;BME280;64853;53.200;6.080;2022-11-03T01:16:32;101090.59;;;17.81;56.22
76122;BME280;64853;53.200;6.080;2022-11-03T01:18:59;101101.31;;;17.83;56.11
76122;BME280;64853;53.200;6.080;2022-11-03T01:21:26;101099.66;;;17.82;56.13
76122;BME280;64853;53.200;6.080;2022-11-03T01:23:54;101107.66;;;17.84;55.86
76122;BME280;64853;53.200;6.080;2022-11-03T01:26:21;101092.53;;;17.81;55.76
76122;BME280;64853;53.200;6.080;2022-11-03T01:28:47;101084.00;;;17.83;55.84
76122;BME280;64853;53.200;6.080;2022-11-03T01:31:16;101080.38;;;17.82;56.00
76122;BME280;64853;53.200;6.080;2022-11-03T01:33:43;101092.53;;;17.81;55.97
76122;BME280;64853;53.200;6.080;2022-11-03T01:36:11;101098.84;;;17.81;55.87
76122;BME280;64853;53.200;6.080;2022-11-03T01:38:38;101094.16;;;17.82;55.89
76122;BME280;64853;53.200;6.080;2022-11-03T01:41:09;101075.16;;;17.80;56.00
76122;BME280;64853;53.200;6.080;2022-11-03T01:43:37;101069.66;;;17.80;55.89
76122;BME280;64853;53.200;6.080;2022-11-03T01:46:07;101074.63;;;17.78;55.94
76122;BME280;64853;53.200;6.080;2022-11-03T01:48:42;101069.66;;;17.80;55.86
76122;BME280;64853;53.200;6.080;2022-11-03T01:51:12;101067.16;;;17.79;56.13
76122;BME280;64853;53.200;6.080;2022-11-03T01:53:42;101062.50;;;17.79;55.72
76122;BME280;64853;53.200;6.080;2022-11-03T01:56:12;101060.84;;;17.78;55.89
76122;BME280;64853;53.200;6.080;2022-11-03T01:58:43;101057.00;;;17.79;55.70
76122;BME280;64853;53.200;6.080;2022-11-03T02:01:11;101051.75;;;17.78;55.36
76122;BME280;64853;53.200;6.080;2022-11-03T02:03:41;101056.97;;;17.74;54.95
76122;BME280;64853;53.200;6.080;2022-11-03T02:06:09;101042.94;;;17.71;54.81
76122;BME280;64853;53.200;6.080;2022-11-03T02:08:39;101049.28;;;17.71;55.20
76122;BME280;64853;53.200;6.080;2022-11-03T02:11:07;101039.91;;;17.72;55.42
76122;BME280;64853;53.200;6.080;2022-11-03T02:13:49;101039.91;;;17.72;55.43
76122;BME280;64853;53.200;6.080;2022-11-03T02:16:16;101046.53;;;17.71;54.80
76122;BME280;64853;53.200;6.080;2022-11-03T02:18:43;101039.91;;;17.72;55.08
76122;BME280;64853;53.200;6.080;2022-11-03T02:21:16;101034.69;;;17.71;54.63
76122;BME280;64853;53.200;6.080;2022-11-03T02:23:52;101036.63;;;17.70;55.06
76122;BME280;64853;53.200;6.080;2022-11-03T02:26:24;101028.91;;;17.62;53.51
76122;BME280;64853;53.200;6.080;2022-11-03T02:28:50;101032.47;;;17.57;53.47
76122;BME280;64853;53.200;6.080;2022-11-03T02:31:23;101036.31;;;17.61;55.22
76122;BME280;64853;53.200;6.080;2022-11-03T02:33:55;101035.78;;;17.65;54.87
76122;BME280;64853;53.200;6.080;2022-11-03T02:36:27;101038.28;;;17.66;55.27
76122;BME280;64853;53.200;6.080;2022-11-03T02:38:57;101046.25;;;17.68;55.60
76122;BME280;64853;53.200;6.080;2022-11-03T02:41:28;101044.34;;;17.68;55.73
76122;BME280;64853;53.200;6.080;2022-11-03T02:43:55;101036.38;;;17.67;55.39
76122;BME280;64853;53.200;6.080;2022-11-03T02:46:24;101032.50;;;17.68;55.50
76122;BME280;64853;53.200;6.080;2022-11-03T02:48:51;101024.50;;;17.66;55.60
76122;BME280;64853;53.200;6.080;2022-11-03T02:51:18;101018.19;;;17.66;55.55
76122;BME280;64853;53.200;6.080;2022-11-03T02:53:55;101021.75;;;17.66;55.68
76122;BME280;64853;53.200;6.080;2022-11-03T02:56:27;101018.19;;;17.66;55.23
76122;BME280;64853;53.200;6.080;2022-11-03T02:58:58;101015.13;;;17.62;54.41
76122;BME280;64853;53.200;6.080;2022-11-03T03:01:30;101020.06;;;17.60;54.56
76122;BME280;64853;53.200;6.080;2022-11-03T03:04:05;101012.66;;;17.60;54.90
76122;BME280;64853;53.200;6.080;2022-11-03T03:06:36;101012.63;;;17.55;53.36
76122;BME280;64853;53.200;6.080;2022-11-03T03:09:08;101007.97;;;17.56;55.00
76122;BME280;64853;53.200;6.080;2022-11-03T03:11:40;101000.25;;;17.58;55.27
76122;BME280;64853;53.200;6.080;2022-11-03T03:14:11;100994.47;;;17.59;55.17
76122;BME280;64853;53.200;6.080;2022-11-03T03:16:47;100984.28;;;17.60;55.25
76122;BME280;64853;53.200;6.080;2022-11-03T03:19:32;100981.53;;;17.60;55.61
76122;BME280;64853;53.200;6.080;2022-11-03T03:22:10;100985.41;;;17.59;54.92
76122;BME280;64853;53.200;6.080;2022-11-03T03:24:44;100988.16;;;17.59;55.05
76122;BME280;64853;53.200;6.080;2022-11-03T03:27:16;100978.25;;;17.53;53.50
76122;BME280;64853;53.200;6.080;2022-11-03T03:29:48;100972.19;;;17.51;53.88
76122;BME280;64853;53.200;6.080;2022-11-03T03:32:19;100973.03;;;17.51;54.85
76122;BME280;64853;53.200;6.080;2022-11-03T03:34:48;100973.28;;;17.55;55.33
76122;BME280;64853;53.200;6.080;2022-11-03T03:37:17;100973.28;;;17.55;55.28
76122;BME280;64853;53.200;6.080;2022-11-03T03:39:47;100959.78;;;17.53;54.58
76122;BME280;64853;53.200;6.080;2022-11-03T03:42:17;100954.31;;;17.48;53.75
76122;BME280;64853;53.200;6.080;2022-11-03T03:44:45;100954.59;;;17.41;53.23
76122;BME280;64853;53.200;6.080;2022-11-03T03:47:16;100948.25;;;17.36;53.28
76122;BME280;64853;53.200;6.080;2022-11-03T03:49:43;100957.06;;;17.33;53.03
76122;BME280;64853;53.200;6.080;2022-11-03T03:52:10;100955.13;;;17.33;53.82
76122;BME280;64853;53.200;6.080;2022-11-03T03:54:37;100944.69;;;17.40;54.75
76122;BME280;64853;53.200;6.080;2022-11-03T03:57:05;100943.03;;;17.39;53.61
76122;BME280;64853;53.200;6.080;2022-11-03T03:59:33;100953.50;;;17.32;52.91
76122;BME280;64853;53.200;6.080;2022-11-03T04:02:00;100947.44;;;17.25;52.94
76122;BME280;64853;53.200;6.080;2022-11-03T04:04:27;100946.63;;;17.24;53.33
76122;BME280;64853;53.200;6.080;2022-11-03T04:06:53;100930.66;;;17.21;53.12
76122;BME280;64853;53.200;6.080;2022-11-03T04:09:34;100932.59;;;17.21;53.15
76122;BME280;64853;53.200;6.080;2022-11-03T04:12:00;100932.03;;;17.19;52.77
76122;BME280;64853;53.200;6.080;2022-11-03T04:14:45;100921.59;;;17.16;53.09
76122;BME280;64853;53.200;6.080;2022-11-03T04:17:29;100919.69;;;17.16;53.38
76122;BME280;64853;53.200;6.080;2022-11-03T04:20:13;100931.75;;;17.20;53.16
76122;BME280;64853;53.200;6.080;2022-11-03T04:22:57;100935.91;;;17.18;52.91
76122;BME280;64853;53.200;6.080;2022-11-03T04:25:24;100928.75;;;17.17;52.87
76122;BME280;64853;53.200;6.080;2022-11-03T04:27:50;100925.19;;;17.11;53.15
76122;BME280;64853;53.200;6.080;2022-11-03T04:30:19;100928.75;;;17.12;52.89
76122;BME280;64853;53.200;6.080;2022-11-03T04:32:50;100919.09;;;17.14;53.14
76122;BME280;64853;53.200;6.080;2022-11-03T04:35:18;100915.81;;;17.17;53.21
76122;BME280;64853;53.200;6.080;2022-11-03T04:37:49;100919.13;;;17.19;53.09
76122;BME280;64853;53.200;6.080;2022-11-03T04:40:16;100922.69;;;17.15;52.85
76122;BME280;64853;53.200;6.080;2022-11-03T04:42:43;100913.06;;;17.07;52.59
76122;BME280;64853;53.200;6.080;2022-11-03T04:45:16;100910.03;;;17.08;53.50
76122;BME280;64853;53.200;6.080;2022-11-03T04:47:48;100901.53;;;17.10;53.04
76122;BME280;64853;53.200;6.080;2022-11-03T04:50:17;100898.50;;;17.12;52.85
76122;BME280;64853;53.200;6.080;2022-11-03T04:52:44;100907.28;;;17.08;53.51
76122;BME280;64853;53.200;6.080;2022-11-03T04:55:13;100912.25;;;17.12;53.51
76122;BME280;64853;53.200;6.080;2022-11-03T04:57:40;100907.28;;;17.19;54.40
76122;BME280;64853;53.200;6.080;2022-11-03T05:00:13;100905.06;;;17.26;54.64
76122;BME280;64853;53.200;6.080;2022-11-03T05:02:39;100909.22;;;17.29;54.66
76122;BME280;64853;53.200;6.080;2022-11-03T05:05:14;100913.31;;;17.31;54.80
76122;BME280;64853;53.200;6.080;2022-11-03T05:07:42;100907.81;;;17.31;54.49
76122;BME280;64853;53.200;6.080;2022-11-03T05:10:12;100896.25;;;17.29;53.74
76122;BME280;64853;53.200;6.080;2022-11-03T05:12:41;100897.38;;;17.23;53.97
76122;BME280;64853;53.200;6.080;2022-11-03T05:15:25;100893.25;;;17.25;54.62
76122;BME280;64853;53.200;6.080;2022-11-03T05:17:52;100892.41;;;17.25;54.45
76122;BME280;64853;53.200;6.080;2022-11-03T05:20:30;100891.84;;;17.28;54.92
76122;BME280;64853;53.200;6.080;2022-11-03T05:22:58;100879.75;;;17.29;55.08
76122;BME280;64853;53.200;6.080;2022-11-03T05:25:35;100876.47;;;17.27;54.34
76122;BME280;64853;53.200;6.080;2022-11-03T05:28:02;100874.81;;;17.26;54.79
76122;BME280;64853;53.200;6.080;2022-11-03T05:30:29;100880.84;;;17.28;55.11
76122;BME280;64853;53.200;6.080;2022-11-03T05:32:56;100872.63;;;17.23;53.82
76122;BME280;64853;53.200;6.080;2022-11-03T05:35:24;100868.78;;;17.14;53.29
76122;BME280;64853;53.200;6.080;2022-11-03T05:37:51;100865.75;;;17.10;53.32
76122;BME280;64853;53.200;6.080;2022-11-03T05:40:21;100856.13;;;17.02;52.88
76122;BME280;64853;53.200;6.080;2022-11-03T05:42:51;100854.50;;;16.96;53.28
76122;BME280;64853;53.200;6.080;2022-11-03T05:45:22;100845.44;;;16.96;53.05
76122;BME280;64853;53.200;6.080;2022-11-03T05:47:48;100839.06;;;16.95;53.25
76122;BME280;64853;53.200;6.080;2022-11-03T05:50:19;100838.25;;;16.95;52.86
76122;BME280;64853;53.200;6.080;2022-11-03T05:52:47;100830.28;;;16.93;53.44
76122;BME280;64853;53.200;6.080;2022-11-03T05:55:23;100819.84;;;16.90;53.59
76122;BME280;64853;53.200;6.080;2022-11-03T05:57:51;100819.59;;;16.86;52.74
76122;BME280;64853;53.200;6.080;2022-11-03T06:00:29;100823.72;;;16.79;53.18
76122;BME280;64853;53.200;6.080;2022-11-03T06:02:57;100822.91;;;16.78;53.14
76122;BME280;64853;53.200;6.080;2022-11-03T06:05:25;100817.66;;;16.77;53.35
76122;BME280;64853;53.200;6.080;2022-11-03T06:07:55;100822.59;;;16.85;53.61
76122;BME280;64853;53.200;6.080;2022-11-03T06:10:24;100822.31;;;16.91;53.61
76122;BME280;64853;53.200;6.080;2022-11-03T06:12:53;100818.19;;;16.99;54.08
76122;BME280;64853;53.200;6.080;2022-11-03T06:15:27;100819.00;;;17.05;53.58
76122;BME280;64853;53.200;6.080;2022-11-03T06:17:55;100829.19;;;16.94;52.95
76122;BME280;64853;53.200;6.080;2022-11-03T06:20:22;100817.09;;;16.90;53.14
76122;BME280;64853;53.200;6.080;2022-11-03T06:22:51;100818.22;;;16.89;53.40
76122;BME280;64853;53.200;6.080;2022-11-03T06:25:25;100818.75;;;16.91;53.64
76122;BME280;64853;53.200;6.080;2022-11-03T06:27:54;100808.84;;;16.90;53.56
76122;BME280;64853;53.200;6.080;2022-11-03T06:30:24;100820.94;;;16.94;53.50
76122;BME280;64853;53.200;6.080;2022-11-03T06:32:52;100811.56;;;16.95;53.84
76122;BME280;64853;53.200;6.080;2022-11-03T06:35:20;100805.00;;;16.91;53.48
76122;BME280;64853;53.200;6.080;2022-11-03T06:37:47;100808.31;;;16.88;53.10
76122;BME280;64853;53.200;6.080;2022-11-03T06:40:32;100799.78;;;16.84;53.54
76122;BME280;64853;53.200;6.080;2022-11-03T06:43:00;100803.91;;;16.92;53.84
76122;BME280;64853;53.200;6.080;2022-11-03T06:45:33;100805.81;;;16.97;53.89
76122;BME280;64853;53.200;6.080;2022-11-03T06:48:02;100805.81;;;17.02;54.52
76122;BME280;64853;53.200;6.080;2022-11-03T06:50:31;100798.66;;;17.01;54.25
76122;BME280;64853;53.200;6.080;2022-11-03T06:53:02;100795.88;;;17.06;54.91
76122;BME280;64853;53.200;6.080;2022-11-03T06:55:30;100804.44;;;17.09;54.91
76122;BME280;64853;53.200;6.080;2022-11-03T06:58:01;100797.81;;;17.11;55.13
76122;BME280;64853;53.200;6.080;2022-11-03T07:00:29;100796.72;;;17.12;55.15
76122;BME280;64853;53.200;6.080;2022-11-03T07:03:00;100797.53;;;17.12;55.34
76122;BME280;64853;53.200;6.080;2022-11-03T07:05:29;100787.34;;;17.13;55.30
76122;BME280;64853;53.200;6.080;2022-11-03T07:07:58;100795.59;;;17.13;55.32
76122;BME280;64853;53.200;6.080;2022-11-03T07:10:27;100783.78;;;17.12;55.41
76122;BME280;64853;53.200;6.080;2022-11-03T07:12:55;100786.25;;;17.14;55.40
76122;BME280;64853;53.200;6.080;2022-11-03T07:15:25;100779.09;;;17.13;55.25
76122;BME280;64853;53.200;6.080;2022-11-03T07:17:54;100785.72;;;17.12;55.57
76122;BME280;64853;53.200;6.080;2022-11-03T07:20:21;100785.19;;;17.09;55.55
76122;BME280;64853;53.200;6.080;2022-11-03T07:22:48;100788.47;;;17.12;55.65
76122;BME280;64853;53.200;6.080;2022-11-03T07:25:17;100788.47;;;17.12;55.40
76122;BME280;64853;53.200;6.080;2022-11-03T07:27:45;100774.69;;;17.12;55.18
76122;BME280;64853;53.200;6.080;2022-11-03T07:30:19;100788.19;;;17.13;55.35
76122;BME280;64853;53.200;6.080;2022-11-03T07:32:46;100795.59;;;17.13;55.34
76122;BME280;64853;53.200;6.080;2022-11-03T07:35:27;100789.28;;;17.12;55.22
76122;BME280;64853;53.200;6.080;2022-11-03T07:37:56;100777.19;;;17.13;55.43
76122;BME280;64853;53.200;6.080;2022-11-03T07:40:24;100780.75;;;17.14;55.42
76122;BME280;64853;53.200;6.080;2022-11-03T07:42:54;100769.75;;;17.14;55.32
76122;BME280;64853;53.200;6.080;2022-11-03T07:45:37;100764.22;;;17.14;55.36
76122;BME280;64853;53.200;6.080;2022-11-03T07:48:15;100765.06;;;17.14;55.37
76122;BME280;64853;53.200;6.080;2022-11-03T07:50:43;100767.00;;;17.14;55.66
76122;BME280;64853;53.200;6.080;2022-11-03T07:53:13;100765.91;;;17.15;55.23
76122;BME280;64853;53.200;6.080;2022-11-03T07:55:43;100768.66;;;17.15;55.36
76122;BME280;64853;53.200;6.080;2022-11-03T07:58:30;100748.25;;;17.16;55.58
76122;BME280;64853;53.200;6.080;2022-11-03T08:01:00;100761.22;;;17.15;55.17
76122;BME280;64853;53.200;6.080;2022-11-03T08:03:39;100746.63;;;17.15;55.37
76122;BME280;64853;53.200;6.080;2022-11-03T08:06:07;100745.50;;;17.16;55.05
76122;BME280;64853;53.200;6.080;2022-11-03T08:08:33;100752.13;;;17.15;55.17
76122;BME280;64853;53.200;6.080;2022-11-03T08:11:00;100735.63;;;17.15;55.46
76122;BME280;64853;53.200;6.080;2022-11-03T08:13:26;100740.00;;;17.16;55.10
76122;BME280;64853;53.200;6.080;2022-11-03T08:15:53;100735.63;;;17.15;55.23
76122;BME280;64853;53.200;6.080;2022-11-03T08:18:20;100734.50;;;17.16;55.28
76122;BME280;64853;53.200;6.080;2022-11-03T08:20:47;100732.88;;;17.15;55.37
76122;BME280;64853;53.200;6.080;2022-11-03T08:23:13;100730.66;;;17.17;55.54
76122;BME280;64853;53.200;6.080;2022-11-03T08:25:41;100720.75;;;17.16;55.44
76122;BME280;64853;53.200;6.080;2022-11-03T08:28:07;100720.75;;;17.16;55.50
76122;BME280;64853;53.200;6.080;2022-11-03T08:30:34;100719.66;;;17.17;55.54
76122;BME280;64853;53.200;6.080;2022-11-03T08:33:00;100720.22;;;17.14;55.47
76122;BME280;64853;53.200;6.080;2022-11-03T08:35:28;100718.84;;;17.16;55.34
76122;BME280;64853;53.200;6.080;2022-11-03T08:37:54;100716.38;;;17.15;55.42
76122;BME280;64853;53.200;6.080;2022-11-03T08:40:21;100707.00;;;17.16;55.58
76122;BME280;64853;53.200;6.080;2022-11-03T08:42:47;100703.44;;;17.15;55.00
76122;BME280;64853;53.200;6.080;2022-11-03T08:45:15;100699.88;;;17.15;55.18
76122;BME280;64853;53.200;6.080;2022-11-03T08:47:41;100710.88;;;17.15;55.11
76122;BME280;64853;53.200;6.080;2022-11-03T08:50:08;100688.88;;;17.15;55.63
76122;BME280;64853;53.200;6.080;2022-11-03T08:52:36;100688.03;;;17.14;55.56
76122;BME280;64853;53.200;6.080;2022-11-03T08:55:03;100685.28;;;17.14;55.58
76122;BME280;64853;53.200;6.080;2022-11-03T08:57:30;100688.03;;;17.14;55.40
76122;BME280;64853;53.200;6.080;2022-11-03T08:59:56;100685.28;;;17.14;55.32
76122;BME280;64853;53.200;6.080;2022-11-03T09:02:23;100672.38;;;17.15;55.41
76122;BME280;64853;53.200;6.080;2022-11-03T09:04:49;100683.38;;;17.15;55.39
76122;BME280;64853;53.200;6.080;2022-11-03T09:07:16;100672.38;;;17.15;55.45
76122;BME280;64853;53.200;6.080;2022-11-03T09:09:43;100666.84;;;17.15;55.34
76122;BME280;64853;53.200;6.080;2022-11-03T09:12:10;100651.16;;;17.15;55.11
76122;BME280;64853;53.200;6.080;2022-11-03T09:14:36;100666.84;;;17.15;55.54
76122;BME280;64853;53.200;6.080;2022-11-03T09:17:03;100656.94;;;17.14;55.42
76122;BME280;64853;53.200;6.080;2022-11-03T09:19:29;100648.69;;;17.14;55.38
76122;BME280;64853;53.200;6.080;2022-11-03T09:21:55;100652.25;;;17.14;55.25
76122;BME280;64853;53.200;6.080;2022-11-03T09:24:24;100652.25;;;17.14;55.25
76122;BME280;64853;53.200;6.080;2022-11-03T09:26:52;100633.28;;;17.13;55.16
76122;BME280;64853;53.200;6.080;2022-11-03T09:29:18;100645.94;;;17.14;55.17
76122;BME280;64853;53.200;6.080;2022-11-03T09:31:45;100644.00;;;17.14;55.53
76122;BME280;64853;53.200;6.080;2022-11-03T09:34:11;100633.00;;;17.14;55.40
76122;BME280;64853;53.200;6.080;2022-11-03T09:36:38;100625.03;;;17.13;55.35
76122;BME280;64853;53.200;6.080;2022-11-03T09:39:04;100624.75;;;17.14;55.33
76122;BME280;64853;53.200;6.080;2022-11-03T09:41:31;100612.94;;;17.14;55.11
76122;BME280;64853;53.200;6.080;2022-11-03T09:43:59;100615.69;;;17.14;55.54
76122;BME280;64853;53.200;6.080;2022-11-03T09:46:27;100604.69;;;17.14;55.29
76122;BME280;64853;53.200;6.080;2022-11-03T09:48:54;100592.03;;;17.13;55.33
76122;BME280;64853;53.200;6.080;2022-11-03T09:51:22;100593.69;;;17.14;55.43
76122;BME280;64853;53.200;6.080;2022-11-03T09:53:51;100592.59;;;17.15;55.07
76122;BME280;64853;53.200;6.080;2022-11-03T09:56:21;100588.19;;;17.14;55.31
76122;BME280;64853;53.200;6.080;2022-11-03T09:58:47;100585.44;;;17.14;55.54
76122;BME280;64853;53.200;6.080;2022-11-03T10:01:15;100583.50;;;17.14;55.43
76122;BME280;64853;53.200;6.080;2022-11-03T10:03:42;100581.88;;;17.13;55.35
76122;BME280;64853;53.200;6.080;2022-11-03T10:06:09;100569.22;;;17.12;55.09
76122;BME280;64853;53.200;6.080;2022-11-03T10:08:37;100564.53;;;17.13;55.52
76122;BME280;64853;53.200;6.080;2022-11-03T10:11:06;100569.22;;;17.12;55.47
76122;BME280;64853;53.200;6.080;2022-11-03T10:13:36;100577.47;;;17.12;55.24
76122;BME280;64853;53.200;6.080;2022-11-03T10:16:05;100571.69;;;17.14;55.03
76122;BME280;64853;53.200;6.080;2022-11-03T10:18:34;100564.53;;;17.13;55.62
76122;BME280;64853;53.200;6.080;2022-11-03T10:21:03;100560.16;;;17.12;55.30
76122;BME280;64853;53.200;6.080;2022-11-03T10:23:30;100547.19;;;17.12;55.45
76122;BME280;64853;53.200;6.080;2022-11-03T10:26:07;100541.41;;;17.14;55.09
76122;BME280;64853;53.200;6.080;2022-11-03T10:28:34;100529.88;;;17.12;55.17
76122;BME280;64853;53.200;6.080;2022-11-03T10:31:02;100527.66;;;17.14;55.53
76122;BME280;64853;53.200;6.080;2022-11-03T10:33:32;100511.16;;;17.14;55.15
76122;BME280;64853;53.200;6.080;2022-11-03T10:36:02;100510.34;;;17.13;55.07
76122;BME280;64853;53.200;6.080;2022-11-03T10:38:30;100505.66;;;17.14;55.06
76122;BME280;64853;53.200;6.080;2022-11-03T10:41:09;100515.84;;;17.13;55.42
76122;BME280;64853;53.200;6.080;2022-11-03T10:43:37;100507.31;;;17.15;55.14
76122;BME280;64853;53.200;6.080;2022-11-03T10:46:13;100506.47;;;17.14;55.27
76122;BME280;64853;53.200;6.080;2022-11-03T10:48:40;100502.91;;;17.14;55.12
76122;BME280;64853;53.200;6.080;2022-11-03T10:51:10;100503.19;;;17.12;55.16
76122;BME280;64853;53.200;6.080;2022-11-03T10:53:37;100499.63;;;17.12;55.58
76122;BME280;64853;53.200;6.080;2022-11-03T10:56:04;100492.47;;;17.11;55.01
76122;BME280;64853;53.200;6.080;2022-11-03T10:58:31;100489.72;;;17.11;55.49
76122;BME280;64853;53.200;6.080;2022-11-03T11:00:58;100480.38;;;17.12;55.34
76122;BME280;64853;53.200;6.080;2022-11-03T11:03:25;100485.88;;;17.12;55.43
76122;BME280;64853;53.200;6.080;2022-11-03T11:05:51;100485.88;;;17.12;55.18
76122;BME280;64853;53.200;6.080;2022-11-03T11:08:22;100474.88;;;17.12;55.37
76122;BME280;64853;53.200;6.080;2022-11-03T11:10:48;100476.50;;;17.13;55.04
76122;BME280;64853;53.200;6.080;2022-11-03T11:13:26;100471.84;;;17.13;55.07
76122;BME280;64853;53.200;6.080;2022-11-03T11:15:54;100463.88;;;17.12;55.15
76122;BME280;64853;53.200;6.080;2022-11-03T11:18:59;100465.50;;;17.13;55.30
76122;BME280;64853;53.200;6.080;2022-11-03T11:21:58;100456.72;;;17.11;55.19
76122;BME280;64853;53.200;6.080;2022-11-03T11:24:57;100449.31;;;17.11;55.45
76122;BME280;64853;53.200;6.080;2022-11-03T11:33:27;100429.78;;;17.07;55.60
76122;BME280;64853;53.200;6.080;2022-11-03T11:36:19;100430.63;;;17.08;55.52
76122;BME280;64853;53.200;6.080;2022-11-03T11:39:07;100430.63;;;17.08;55.49
76122;BME280;64853;53.200;6.080;2022-11-03T11:42:08;100424.84;;;17.09;55.51
76122;BME280;64853;53.200;6.080;2022-11-03T11:44:54;100405.59;;;17.09;55.58
76122;BME280;64853;53.200;6.080;2022-11-03T11:50:29;100405.59;;;17.09;55.46
76122;BME280;64853;53.200;6.080;2022-11-03T11:53:17;100394.59;;;17.09;55.35
76122;BME280;64853;53.200;6.080;2022-11-03T11:55:55;100389.91;;;17.10;55.48
76122;BME280;64853;53.200;6.080;2022-11-03T11:58:28;100381.66;;;17.10;55.40
76122;BME280;64853;53.200;6.080;2022-11-03T12:00:59;100375.03;;;17.11;55.36
76122;BME280;64853;53.200;6.080;2022-11-03T12:03:35;100373.91;;;17.12;55.15
76122;BME280;64853;53.200;6.080;2022-11-03T12:06:03;100370.66;;;17.10;55.45
76122;BME280;64853;53.200;6.080;2022-11-03T12:08:30;100365.38;;;17.14;55.52
76122;BME280;64853;53.200;6.080;2022-11-03T12:10:59;100349.16;;;17.12;55.50
76122;BME280;64853;53.200;6.080;2022-11-03T12:13:41;100344.47;;;17.13;55.36
76122;BME280;64853;53.200;6.080;2022-11-03T12:16:09;100341.72;;;17.13;55.59
76122;BME280;64853;53.200;6.080;2022-11-03T12:18:37;100335.13;;;17.14;55.36
76122;BME280;64853;53.200;6.080;2022-11-03T12:21:05;100325.22;;;17.13;55.13
76122;BME280;64853;53.200;6.080;2022-11-03T12:23:37;100315.06;;;17.13;55.21
76122;BME280;64853;53.200;6.080;2022-11-03T12:26:11;100316.66;;;17.14;55.62
76122;BME280;64853;53.200;6.080;2022-11-03T12:28:40;100301.00;;;17.15;55.24
76122;BME280;64853;53.200;6.080;2022-11-03T12:31:07;100302.13;;;17.14;55.33
76122;BME280;64853;53.200;6.080;2022-11-03T12:33:33;100296.59;;;17.14;55.50
76122;BME280;64853;53.200;6.080;2022-11-03T12:35:59;100299.38;;;17.14;55.27
76122;BME280;64853;53.200;6.080;2022-11-03T12:38:26;100302.13;;;17.14;55.44
76122;BME280;64853;53.200;6.080;2022-11-03T12:40:52;100294.66;;;17.14;55.45
76122;BME280;64853;53.200;6.080;2022-11-03T12:43:19;100292.75;;;17.15;55.67
76122;BME280;64853;53.200;6.080;2022-11-03T12:45:47;100298.25;;;17.15;55.31
76122;BME280;64853;53.200;6.080;2022-11-03T12:48:13;100287.25;;;17.15;55.43
76122;BME280;64853;53.200;6.080;2022-11-03T12:50:39;100294.38;;;17.16;55.15
76122;BME280;64853;53.200;6.080;2022-11-03T12:53:06;100289.16;;;17.14;55.20
76122;BME280;64853;53.200;6.080;2022-11-03T12:55:33;100274.31;;;17.15;55.23
76122;BME280;64853;53.200;6.080;2022-11-03T12:57:59;100279.00;;;17.15;55.33
76122;BME280;64853;53.200;6.080;2022-11-03T13:00:27;100277.88;;;17.16;55.29
76122;BME280;64853;53.200;6.080;2022-11-03T13:02:55;100263.97;;;17.07;53.42
76122;BME280;64853;53.200;6.080;2022-11-03T13:05:21;100262.19;;;16.92;52.59
76122;BME280;64853;53.200;6.080;2022-11-03T13:07:49;100257.91;;;16.76;52.52
76122;BME280;64853;53.200;6.080;2022-11-03T13:10:15;100240.97;;;16.68;51.95
76122;BME280;64853;53.200;6.080;2022-11-03T13:12:42;100248.25;;;16.49;52.09
76122;BME280;64853;53.200;6.080;2022-11-03T13:15:10;100243.91;;;16.43;51.83